createdAt,value
2023-02-15T00:02:07.988Z,42.43
2023-02-15T00:04:51.274Z,38.13
2023-02-15T00:07:21.507Z,34.70
2023-02-15T00:09:49.611Z,37.40
2023-02-15T00:12:18.204Z,34.87
2023-02-15T00:14:46.217Z,37.53
2023-02-15T00:17:14.296Z,35.70
2023-02-15T00:19:42.292Z,38.03
2023-02-15T00:22:10.723Z,35.63
2023-02-15T00:24:40.157Z,37.93
2023-02-15T00:27:10.046Z,37.40
2023-02-15T00:29:38.060Z,37.00
2023-02-15T00:32:07.067Z,36.33
2023-02-15T00:34:35.248Z,38.13
2023-02-15T00:37:03.457Z,36.97
2023-02-15T00:39:31.501Z,37.93
2023-02-15T00:42:02.011Z,42.67
2023-02-15T00:44:30.037Z,41.87
2023-02-15T00:46:58.266Z,42.10
2023-02-15T00:49:26.359Z,40.43
2023-02-15T00:51:55.611Z,45.27
2023-02-15T00:54:23.670Z,42.50
2023-02-15T00:56:51.947Z,43.67
2023-02-15T00:59:21.392Z,43.60
2023-02-15T01:01:49.565Z,46.20
2023-02-15T01:04:17.670Z,45.60
2023-02-15T01:06:45.997Z,46.33
2023-02-15T01:09:14.584Z,40.37
2023-02-15T01:11:42.649Z,45.40
2023-02-15T01:14:10.733Z,42.80
2023-02-15T01:16:41.740Z,42.70
2023-02-15T01:19:09.779Z,41.50
2023-02-15T01:21:37.818Z,40.47
2023-02-15T01:24:05.985Z,45.97
2023-02-15T01:26:33.998Z,39.40
2023-02-15T01:29:02.027Z,36.07
2023-02-15T01:31:30.227Z,38.30
2023-02-15T01:33:59.626Z,34.80
2023-02-15T01:36:27.712Z,35.53
2023-02-15T01:38:56.005Z,34.70
2023-02-15T01:41:27.559Z,32.13
2023-02-15T01:43:57.757Z,31.53
2023-02-15T01:46:32.722Z,30.40
2023-02-15T01:49:09.013Z,29.60
2023-02-15T01:51:39.592Z,29.90
2023-02-15T01:54:12.450Z,32.13
2023-02-15T01:56:43.073Z,29.43
2023-02-15T01:59:15.542Z,26.37
2023-02-15T02:01:43.790Z,30.53
2023-02-15T02:04:18.421Z,28.40
2023-02-15T02:06:49.959Z,28.30
2023-02-15T02:09:18.286Z,29.83
2023-02-15T02:11:50.058Z,29.43
2023-02-15T02:14:19.283Z,29.60
2023-02-15T02:16:55.986Z,28.33
2023-02-15T02:20:01.549Z,29.90
2023-02-15T02:23:04.464Z,30.53
2023-02-15T02:26:17.268Z,27.87
2023-02-15T02:29:20.205Z,28.47
2023-02-15T02:32:17.942Z,28.27
2023-02-15T02:34:58.585Z,29.63
2023-02-15T02:37:34.810Z,26.60
2023-02-15T02:40:10.841Z,25.20
2023-02-15T02:42:42.924Z,23.73
2023-02-15T02:45:17.458Z,25.63
2023-02-15T02:47:49.450Z,25.97
2023-02-15T02:50:23.528Z,26.43
2023-02-15T02:52:52.990Z,25.83
2023-02-15T02:55:25.143Z,24.90
2023-02-15T02:57:57.353Z,24.63
2023-02-15T03:00:27.747Z,25.60
2023-02-15T03:03:05.908Z,24.00
2023-02-15T03:05:38.415Z,25.60
2023-02-15T03:08:10.763Z,23.63
2023-02-15T03:10:42.490Z,27.47
2023-02-15T03:13:11.282Z,25.77
2023-02-15T03:15:59.312Z,26.73
2023-02-15T03:18:32.511Z,23.10
2023-02-15T03:21:04.782Z,26.33
2023-02-15T03:23:34.422Z,23.30
2023-02-15T03:26:05.206Z,25.83
2023-02-15T03:28:40.160Z,24.37
2023-02-15T03:31:10.592Z,23.47
2023-02-15T03:33:44.747Z,25.17
2023-02-15T03:36:20.978Z,23.67
2023-02-15T03:39:00.205Z,25.10
2023-02-15T03:41:34.011Z,23.73
2023-02-15T03:44:06.767Z,23.07
2023-02-15T03:46:39.321Z,23.80
2023-02-15T03:49:13.072Z,25.37
2023-02-15T03:51:45.295Z,25.23
2023-02-15T03:54:37.839Z,24.60
2023-02-15T03:57:24.586Z,24.43
2023-02-15T04:00:10.164Z,26.63
2023-02-15T04:02:46.826Z,22.80
2023-02-15T04:05:14.938Z,24.63
2023-02-15T04:07:44.323Z,25.10
2023-02-15T04:10:29.920Z,25.50
2023-02-15T04:12:58.662Z,21.10
2023-02-15T04:15:44.058Z,23.70
2023-02-15T04:18:12.081Z,30.37
2023-02-15T04:20:57.708Z,29.00
2023-02-15T04:23:45.040Z,26.13
2023-02-15T04:26:13.053Z,27.60
2023-02-15T04:28:41.071Z,28.63
2023-02-15T04:31:09.238Z,25.93
2023-02-15T04:33:37.621Z,27.80
2023-02-15T04:36:06.379Z,27.10
2023-02-15T04:38:35.747Z,27.20
2023-02-15T04:41:03.740Z,25.57
2023-02-15T04:43:31.783Z,27.20
2023-02-15T04:46:00.291Z,27.00
2023-02-15T04:48:28.491Z,25.37
2023-02-15T04:50:56.520Z,24.80
2023-02-15T04:53:24.585Z,25.50
2023-02-15T04:55:53.951Z,25.07
2023-02-15T04:58:22.052Z,25.90
2023-02-15T05:00:50.261Z,22.47
2023-02-15T05:03:19.650Z,25.67
2023-02-15T05:05:47.753Z,24.00
2023-02-15T05:08:15.824Z,25.60
2023-02-15T05:10:43.781Z,24.10
2023-02-15T05:13:13.200Z,25.10
2023-02-15T05:15:42.578Z,24.93
2023-02-15T05:18:11.558Z,24.60
2023-02-15T05:20:49.942Z,22.60
2023-02-15T05:23:18.015Z,26.00
2023-02-15T05:26:07.510Z,25.63
2023-02-15T05:28:38.357Z,23.50
2023-02-15T05:31:09.111Z,25.90
2023-02-15T05:33:37.464Z,25.67
2023-02-15T05:36:06.485Z,25.30
2023-02-15T05:38:35.002Z,26.40
2023-02-15T05:41:03.120Z,25.93
2023-02-15T05:43:31.441Z,27.57
2023-02-15T05:46:01.815Z,26.00
2023-02-15T05:48:30.924Z,27.33
2023-02-15T05:51:00.335Z,26.60
2023-02-15T05:53:28.736Z,27.83
2023-02-15T05:56:00.895Z,29.43
2023-02-15T05:58:31.345Z,27.43
2023-02-15T06:01:00.924Z,24.00
2023-02-15T06:03:29.777Z,25.60
2023-02-15T06:05:57.888Z,25.30
2023-02-15T06:08:26.030Z,24.67
2023-02-15T06:10:54.187Z,24.43
2023-02-15T06:13:22.223Z,23.40
2023-02-15T06:15:50.339Z,22.70
2023-02-15T06:18:19.784Z,22.07
2023-02-15T06:20:48.633Z,24.17
2023-02-15T06:23:17.104Z,25.50
2023-02-15T06:25:47.039Z,22.70
2023-02-15T06:28:15.539Z,24.47
2023-02-15T06:30:43.634Z,24.77
2023-02-15T06:33:11.742Z,26.20
2023-02-15T06:35:41.182Z,29.00
2023-02-15T06:38:09.301Z,32.73
2023-02-15T06:40:37.509Z,27.47
2023-02-15T06:43:05.577Z,24.87
2023-02-15T06:45:33.691Z,25.13
2023-02-15T06:48:01.972Z,27.67
2023-02-15T06:50:30.131Z,27.00
2023-02-15T06:53:00.445Z,29.20
2023-02-15T06:55:28.855Z,31.90
2023-02-15T06:57:56.882Z,28.63
2023-02-15T07:00:25.137Z,29.00
2023-02-15T07:02:58.528Z,28.90
2023-02-15T07:05:31.561Z,26.80
2023-02-15T07:08:01.867Z,28.37
2023-02-15T07:10:30.164Z,29.87
2023-02-15T07:12:57.332Z,24.67
2023-02-15T07:15:25.450Z,24.50
2023-02-15T07:17:53.731Z,25.20
2023-02-15T07:20:23.908Z,25.90
2023-02-15T07:22:52.558Z,26.00
2023-02-15T07:25:22.173Z,27.87
2023-02-15T07:27:50.379Z,27.63
2023-02-15T07:30:19.164Z,27.17
2023-02-15T07:33:05.666Z,26.43
2023-02-15T07:35:33.933Z,24.70
2023-02-15T07:38:02.270Z,30.43
2023-02-15T07:40:31.788Z,29.50
2023-02-15T07:43:00.532Z,25.40
2023-02-15T07:45:28.954Z,26.47
2023-02-15T07:47:57.041Z,26.27
2023-02-15T07:50:25.303Z,27.20
2023-02-15T07:52:53.553Z,27.20
2023-02-15T07:55:21.807Z,27.30
2023-02-15T07:57:52.437Z,26.00
2023-02-15T08:00:24.491Z,26.87
2023-02-15T08:03:14.259Z,26.90
2023-02-15T08:05:43.380Z,26.27
2023-02-15T08:08:30.705Z,30.60
2023-02-15T08:11:21.323Z,28.23
2023-02-15T08:13:55.922Z,27.63
2023-02-15T08:16:29.231Z,28.60
2023-02-15T08:18:58.583Z,29.57
2023-02-15T08:21:28.889Z,30.13
2023-02-15T08:23:59.510Z,30.13
2023-02-15T08:26:29.284Z,30.83
2023-02-15T08:28:59.518Z,31.80
2023-02-15T08:31:28.539Z,32.87
2023-02-15T08:33:58.440Z,31.87
2023-02-15T08:36:28.683Z,31.63
2023-02-15T08:38:58.981Z,31.70
2023-02-15T08:41:30.336Z,31.70
2023-02-15T08:44:01.458Z,33.07
2023-02-15T08:46:31.036Z,34.20
2023-02-15T08:48:59.870Z,33.40
2023-02-15T08:51:30.111Z,32.83
2023-02-15T08:53:59.693Z,33.40
2023-02-15T08:56:30.033Z,34.93
2023-02-15T08:58:59.777Z,35.53
2023-02-15T09:01:29.934Z,39.60
2023-02-15T09:04:00.423Z,38.83
2023-02-15T09:06:29.765Z,38.00
2023-02-15T09:08:58.511Z,38.60
2023-02-15T09:11:28.823Z,39.10
2023-02-15T09:14:00.249Z,38.60
2023-02-15T09:16:30.662Z,36.43
2023-02-15T09:18:59.474Z,38.67
2023-02-15T09:21:29.116Z,37.83
2023-02-15T09:24:00.740Z,38.20
2023-02-15T09:26:30.981Z,38.00
2023-02-15T09:29:04.407Z,41.37
2023-02-15T09:31:34.513Z,40.07
2023-02-15T09:34:03.458Z,41.47
2023-02-15T09:36:36.451Z,38.80
2023-02-15T09:39:10.049Z,40.40
2023-02-15T09:42:17.313Z,39.50
2023-02-15T09:45:05.479Z,42.03
2023-02-15T09:47:55.928Z,42.07
2023-02-15T09:50:32.429Z,41.77
2023-02-15T09:53:17.027Z,43.90
2023-02-15T09:55:56.121Z,42.73
2023-02-15T09:58:35.913Z,43.97
2023-02-15T10:01:13.666Z,45.80
2023-02-15T10:03:56.507Z,44.37
2023-02-15T10:06:40.158Z,46.07
2023-02-15T10:09:27.752Z,44.80
2023-02-15T10:12:09.954Z,44.93
2023-02-15T10:15:10.205Z,45.30
2023-02-15T10:17:52.769Z,42.83
2023-02-15T10:20:33.976Z,45.97
2023-02-15T10:23:17.935Z,46.10
2023-02-15T10:25:51.145Z,47.23
2023-02-15T10:28:21.568Z,44.63
2023-02-15T10:30:52.231Z,45.13
2023-02-15T10:33:41.243Z,44.80
2023-02-15T10:36:22.095Z,46.87
2023-02-15T10:38:59.114Z,48.23
2023-02-15T10:41:37.812Z,46.30
2023-02-15T10:44:27.703Z,48.33
2023-02-15T10:47:17.198Z,48.57
2023-02-15T10:50:04.406Z,50.37
2023-02-15T10:52:44.352Z,50.33
2023-02-15T10:55:18.395Z,47.70
2023-02-15T10:57:53.544Z,47.67
2023-02-15T11:00:32.314Z,49.30
2023-02-15T11:03:31.959Z,46.07
2023-02-15T11:06:07.146Z,47.27
2023-02-15T11:08:39.036Z,47.97
2023-02-15T11:11:11.147Z,48.67
2023-02-15T11:13:43.315Z,48.47
2023-02-15T11:16:18.662Z,46.67
2023-02-15T11:18:51.137Z,49.00
2023-02-15T11:21:24.849Z,46.23
2023-02-15T11:23:54.024Z,48.90
2023-02-15T11:26:29.473Z,49.40
2023-02-15T11:29:01.210Z,48.67
2023-02-15T11:31:38.373Z,49.53
2023-02-15T11:34:15.416Z,47.93
2023-02-15T11:36:47.011Z,50.70
2023-02-15T11:39:18.402Z,49.80
2023-02-15T11:41:54.828Z,48.57
2023-02-15T11:44:28.344Z,47.63
2023-02-15T11:46:56.457Z,48.60
2023-02-15T11:49:29.496Z,47.20
2023-02-15T11:51:59.797Z,46.90
2023-02-15T11:54:31.198Z,44.63
2023-02-15T11:57:03.358Z,46.37
2023-02-15T11:59:34.697Z,45.20
2023-02-15T12:02:02.787Z,45.00
2023-02-15T12:04:35.490Z,46.17
2023-02-15T12:07:16.229Z,44.27
2023-02-15T12:09:52.665Z,43.33
2023-02-15T12:12:26.112Z,43.50
2023-02-15T12:14:55.431Z,44.70
2023-02-15T12:17:26.065Z,45.77
2023-02-15T12:19:57.309Z,45.43
2023-02-15T12:22:29.685Z,45.70
2023-02-15T12:25:01.006Z,46.60
2023-02-15T12:27:31.641Z,45.43
2023-02-15T12:30:03.254Z,45.30
2023-02-15T12:32:36.625Z,45.27
2023-02-15T12:35:15.333Z,44.10
2023-02-15T12:37:55.960Z,45.47
2023-02-15T12:40:26.867Z,43.57
2023-02-15T12:42:54.933Z,45.23
2023-02-15T12:45:26.377Z,48.93
2023-02-15T12:48:18.119Z,46.70
2023-02-15T12:50:54.412Z,46.53
2023-02-15T12:53:37.447Z,48.90
2023-02-15T12:56:07.554Z,46.10
2023-02-15T12:58:37.061Z,45.33
2023-02-15T13:01:13.140Z,47.30
2023-02-15T13:03:57.897Z,44.80
2023-02-15T13:06:27.669Z,43.77
2023-02-15T13:09:00.514Z,46.00
2023-02-15T13:11:35.269Z,46.10
2023-02-15T13:14:05.270Z,44.43
2023-02-15T13:16:36.115Z,46.17
2023-02-15T13:19:08.940Z,46.17
2023-02-15T13:21:41.584Z,44.87
2023-02-15T13:24:20.734Z,43.47
2023-02-15T13:26:49.671Z,46.53
2023-02-15T13:29:23.484Z,42.33
2023-02-15T13:31:53.307Z,41.30
2023-02-15T13:34:26.899Z,40.87
2023-02-15T13:37:03.466Z,40.10
2023-02-15T13:39:41.651Z,42.10
2023-02-15T13:42:22.521Z,40.50
2023-02-15T13:45:04.566Z,39.77
2023-02-15T13:47:38.913Z,38.70
2023-02-15T13:50:20.251Z,38.60
2023-02-15T13:52:58.902Z,36.90
2023-02-15T13:55:42.206Z,36.73
2023-02-15T13:58:31.682Z,37.20
2023-02-15T14:01:10.469Z,34.67
2023-02-15T14:03:52.150Z,34.47
2023-02-15T14:06:37.164Z,33.10
2023-02-15T14:09:17.974Z,34.20
2023-02-15T14:11:58.334Z,32.73
2023-02-15T14:15:11.117Z,30.87
2023-02-15T14:17:49.855Z,32.87
2023-02-15T14:20:26.747Z,34.20
2023-02-15T14:23:07.026Z,37.57
2023-02-15T14:25:41.467Z,32.53
2023-02-15T14:28:15.224Z,31.57
2023-02-15T14:30:47.359Z,30.17
2023-02-15T14:33:34.946Z,31.00
2023-02-15T14:36:07.559Z,29.77
2023-02-15T14:38:49.084Z,32.07
2023-02-15T14:41:22.050Z,30.50
2023-02-15T14:44:00.845Z,29.00
2023-02-15T14:46:36.866Z,31.80
2023-02-15T14:49:11.716Z,31.50
2023-02-15T14:52:00.206Z,32.07
2023-02-15T14:55:00.452Z,31.83
2023-02-15T14:57:35.017Z,31.10
2023-02-15T15:00:32.489Z,32.70
2023-02-15T15:03:01.711Z,30.50
2023-02-15T15:05:36.303Z,31.17
2023-02-15T15:08:06.830Z,45.53
2023-02-15T15:10:44.050Z,33.40
2023-02-15T15:13:39.024Z,33.07
2023-02-15T15:16:32.063Z,31.80
2023-02-15T15:19:01.323Z,33.07
2023-02-15T15:22:05.762Z,33.93
2023-02-15T15:24:53.814Z,32.67
2023-02-15T15:27:55.423Z,33.30
2023-02-15T15:31:02.963Z,33.70
2023-02-15T15:34:00.154Z,33.50
2023-02-15T15:36:56.364Z,31.90
2023-02-15T15:39:56.641Z,32.23
2023-02-15T15:42:34.998Z,33.67
2023-02-15T15:45:44.965Z,30.50
2023-02-15T15:48:30.732Z,32.17
2023-02-15T15:51:07.914Z,30.60
2023-02-15T15:53:43.232Z,33.57
2023-02-15T15:56:17.314Z,33.77
2023-02-15T15:58:48.637Z,32.27
2023-02-15T16:01:17.279Z,32.03
2023-02-15T16:03:53.096Z,33.87
2023-02-15T16:06:35.902Z,32.30
2023-02-15T16:09:15.819Z,37.53
2023-02-15T16:11:44.612Z,38.77
2023-02-15T16:14:18.384Z,34.40
2023-02-15T16:16:53.157Z,32.90
2023-02-15T16:19:25.683Z,35.67
2023-02-15T16:21:57.509Z,35.50
2023-02-15T16:24:48.316Z,35.47
2023-02-15T16:27:36.571Z,34.17
2023-02-15T16:30:23.476Z,31.00
2023-02-15T16:32:54.921Z,32.67
2023-02-15T16:35:24.141Z,33.40
2023-02-15T16:37:53.660Z,33.27
2023-02-15T16:40:35.628Z,32.27
2023-02-15T16:43:07.572Z,33.60
2023-02-15T16:45:38.074Z,31.93
2023-02-15T16:48:13.892Z,31.50
2023-02-15T16:50:47.998Z,33.30
2023-02-15T16:53:22.135Z,31.90
2023-02-15T16:55:53.504Z,34.60
2023-02-15T16:58:34.276Z,31.87
2023-02-15T17:01:04.542Z,33.93
2023-02-15T17:03:33.050Z,34.53
2023-02-15T17:06:03.825Z,35.20
2023-02-15T17:08:35.137Z,36.70
2023-02-15T17:11:18.624Z,35.73
2023-02-15T17:14:16.375Z,36.73
2023-02-15T17:16:50.097Z,36.43
2023-02-15T17:19:26.673Z,36.37
2023-02-15T17:21:57.900Z,36.73
2023-02-15T17:24:36.802Z,39.57
2023-02-15T17:27:12.396Z,40.60
2023-02-15T17:29:43.489Z,38.70
2023-02-15T17:32:19.068Z,38.67
2023-02-15T17:35:00.465Z,39.00
2023-02-15T17:37:31.799Z,39.00
2023-02-15T17:40:03.024Z,40.30
2023-02-15T17:42:31.146Z,40.23
2023-02-15T17:44:59.289Z,40.53
2023-02-15T17:47:27.824Z,56.40
2023-02-15T17:49:56.603Z,40.27
2023-02-15T17:52:26.228Z,41.90
2023-02-15T17:55:11.922Z,40.58
2023-02-15T17:57:41.704Z,38.73
2023-02-15T18:00:32.375Z,38.87
2023-02-15T18:03:18.065Z,37.70
2023-02-15T18:06:03.560Z,37.37
2023-02-15T18:08:49.492Z,36.90
2023-02-15T18:11:35.191Z,37.07
2023-02-15T18:14:05.315Z,38.50
2023-02-15T18:16:36.115Z,38.40
2023-02-15T18:19:06.204Z,39.50
2023-02-15T18:21:35.768Z,39.87
2023-02-15T18:24:03.876Z,39.87
2023-02-15T18:26:32.123Z,42.50
2023-02-15T18:29:00.438Z,39.47
2023-02-15T18:31:30.008Z,42.37
2023-02-15T18:34:02.762Z,41.03
2023-02-15T18:36:34.775Z,40.10
2023-02-15T18:39:08.778Z,41.30
2023-02-15T18:41:37.048Z,46.80
2023-02-15T18:44:11.035Z,42.47
2023-02-15T18:46:40.690Z,42.40
2023-02-15T18:49:08.727Z,39.97
2023-02-15T18:51:40.364Z,40.63
2023-02-15T18:54:20.641Z,41.20
2023-02-15T18:56:54.564Z,42.37
2023-02-15T18:59:23.441Z,39.23
2023-02-15T19:01:54.038Z,41.07
2023-02-15T19:04:24.237Z,42.40
2023-02-15T19:06:55.182Z,42.10
2023-02-15T19:09:26.206Z,40.77
2023-02-15T19:11:55.926Z,40.60
2023-02-15T19:14:29.666Z,40.83
2023-02-15T19:17:01.162Z,38.50
2023-02-15T19:19:29.366Z,40.77
2023-02-15T19:21:57.574Z,41.50
2023-02-15T19:24:34.747Z,41.40
2023-02-15T19:27:03.074Z,40.43
2023-02-15T19:29:31.749Z,40.70
2023-02-15T19:32:01.318Z,41.73
2023-02-15T19:34:29.885Z,42.63
2023-02-15T19:36:58.328Z,45.23
2023-02-15T19:39:29.845Z,48.80
2023-02-15T19:41:58.282Z,45.67
2023-02-15T19:44:26.530Z,44.20
2023-02-15T19:46:54.653Z,43.60
2023-02-15T19:49:24.396Z,40.83
2023-02-15T19:51:52.976Z,41.10
2023-02-15T19:54:30.789Z,40.63
2023-02-15T19:56:59.540Z,42.40
2023-02-15T19:59:29.822Z,41.33
2023-02-15T20:01:58.479Z,39.33
2023-02-15T20:04:28.355Z,41.63
2023-02-15T20:06:58.841Z,39.60
2023-02-15T20:09:30.830Z,40.07
2023-02-15T20:11:59.348Z,40.00
2023-02-15T20:14:27.445Z,39.80
2023-02-15T20:16:55.560Z,40.57
2023-02-15T20:19:23.663Z,38.60
2023-02-15T20:21:55.032Z,42.10
2023-02-15T20:24:25.901Z,40.67
2023-02-15T20:26:54.241Z,42.50
2023-02-15T20:29:22.390Z,41.20
2023-02-15T20:31:52.870Z,41.37
2023-02-15T20:34:23.680Z,42.00
2023-02-15T20:36:53.454Z,40.17
2023-02-15T20:39:22.933Z,42.00
2023-02-15T20:41:51.697Z,42.70
2023-02-15T20:44:22.467Z,52.13
2023-02-15T20:46:52.174Z,43.73
2023-02-15T20:49:20.420Z,42.20
2023-02-15T20:51:49.132Z,42.40
2023-02-15T20:54:20.708Z,43.00
2023-02-15T20:56:49.500Z,42.30
2023-02-15T20:59:24.329Z,40.27
2023-02-15T21:01:55.539Z,39.47
2023-02-15T21:04:27.566Z,40.60
2023-02-15T21:06:56.556Z,46.47
2023-02-15T21:09:26.084Z,42.77
2023-02-15T21:11:57.332Z,42.80
2023-02-15T21:14:27.582Z,43.97
2023-02-15T21:16:55.761Z,43.73
2023-02-15T21:19:25.079Z,44.50
2023-02-15T21:21:54.672Z,44.20
2023-02-15T21:24:27.707Z,43.80
2023-02-15T21:26:57.207Z,47.03
2023-02-15T21:29:27.037Z,47.30
2023-02-15T21:31:58.228Z,46.80
2023-02-15T21:34:26.876Z,45.87
2023-02-15T21:36:55.219Z,47.07
2023-02-15T21:39:25.268Z,46.97
2023-02-15T21:42:13.856Z,47.70
2023-02-15T21:44:59.487Z,46.90
2023-02-15T21:47:49.028Z,46.00
2023-02-15T21:50:36.250Z,47.20
2023-02-15T21:53:05.832Z,45.03
2023-02-15T21:55:34.465Z,47.80
2023-02-15T21:58:04.227Z,48.77
2023-02-15T22:00:33.896Z,47.83
2023-02-15T22:03:02.393Z,47.17
2023-02-15T22:05:31.859Z,48.87
2023-02-15T22:08:00.346Z,47.33
2023-02-15T22:10:31.936Z,51.30
2023-02-15T22:13:03.473Z,47.43
2023-02-15T22:15:37.574Z,46.73
2023-02-15T22:18:07.012Z,46.57
2023-02-15T22:20:35.085Z,47.63
2023-02-15T22:23:03.169Z,49.27
2023-02-15T22:25:31.319Z,50.43
2023-02-15T22:27:59.405Z,48.30
2023-02-15T22:30:32.197Z,45.93
2023-02-15T22:33:01.406Z,48.03
2023-02-15T22:35:31.362Z,48.20
2023-02-15T22:37:59.832Z,47.73
2023-02-15T22:40:30.584Z,48.10
2023-02-15T22:43:01.681Z,48.80
2023-02-15T22:45:32.678Z,47.83
2023-02-15T22:48:01.640Z,49.33
2023-02-15T22:50:31.497Z,47.03
2023-02-15T22:53:01.296Z,45.57
2023-02-15T22:55:33.280Z,45.43
2023-02-15T22:58:02.326Z,47.03
2023-02-15T23:00:36.248Z,47.00
2023-02-15T23:03:13.770Z,46.37
2023-02-15T23:05:41.954Z,46.53
2023-02-15T23:08:10.591Z,46.10
2023-02-15T23:10:39.989Z,48.63
2023-02-15T23:13:26.084Z,46.87
2023-02-15T23:15:58.379Z,45.97
2023-02-15T23:18:29.410Z,47.97
2023-02-15T23:20:59.824Z,46.27
2023-02-15T23:23:33.173Z,44.33
2023-02-15T23:26:04.208Z,47.13
2023-02-15T23:28:36.201Z,48.73
2023-02-15T23:31:16.092Z,47.40
2023-02-15T23:33:44.354Z,46.33
2023-02-15T23:36:26.863Z,47.77
2023-02-15T23:38:56.216Z,45.60
2023-02-15T23:41:26.200Z,46.23
2023-02-15T23:43:58.009Z,47.77
2023-02-15T23:46:37.243Z,45.10
2023-02-15T23:49:14.801Z,49.63
2023-02-15T23:51:44.409Z,46.50
2023-02-15T23:54:12.742Z,47.47
2023-02-15T23:56:41.788Z,45.20
2023-02-15T23:59:17.819Z,47.53
